createdAt,value
2023-05-21T00:00:45.793Z,1.10
2023-05-21T00:03:13.852Z,1.13
2023-05-21T00:05:40.978Z,1.25
2023-05-21T00:08:07.943Z,1.15
2023-05-21T00:10:34.758Z,1.15
2023-05-21T00:13:01.712Z,1.15
2023-05-21T00:15:28.494Z,1.10
2023-05-21T00:17:55.208Z,1.38
2023-05-21T00:20:22.017Z,1.05
2023-05-21T00:22:48.752Z,0.85
2023-05-21T00:25:15.681Z,1.10
2023-05-21T00:27:42.488Z,1.50
2023-05-21T00:30:09.469Z,1.38
2023-05-21T00:32:36.930Z,1.13
2023-05-21T00:35:04.174Z,0.93
2023-05-21T00:37:34.016Z,1.20
2023-05-21T00:40:01.826Z,1.10
2023-05-21T00:42:30.613Z,1.38
2023-05-21T00:44:57.673Z,1.63
2023-05-21T00:47:26.880Z,1.27
2023-05-21T00:49:53.623Z,1.13
2023-05-21T00:52:20.467Z,1.30
2023-05-21T00:54:49.556Z,1.85
2023-05-21T00:57:20.587Z,1.20
2023-05-21T00:59:51.785Z,1.63
2023-05-21T01:02:18.563Z,1.45
2023-05-21T01:04:46.052Z,0.98
2023-05-21T01:07:13.267Z,0.93
2023-05-21T01:09:41.258Z,0.95
2023-05-21T01:12:08.760Z,1.10
2023-05-21T01:14:37.544Z,1.10
2023-05-21T01:17:06.455Z,1.30
2023-05-21T01:19:35.472Z,1.00
2023-05-21T01:22:07.643Z,1.67
2023-05-21T01:24:34.845Z,1.10
2023-05-21T01:27:04.265Z,0.90
2023-05-21T01:29:30.978Z,1.45
2023-05-21T01:32:16.685Z,1.08
2023-05-21T01:35:00.880Z,1.20
2023-05-21T01:37:36.530Z,1.30
2023-05-21T01:40:18.026Z,1.05
2023-05-21T01:42:46.702Z,1.00
2023-05-21T01:45:16.384Z,1.20
2023-05-21T01:47:47.919Z,1.17
2023-05-21T01:50:15.986Z,1.20
2023-05-21T01:52:50.919Z,1.10
2023-05-21T01:55:17.985Z,1.27
2023-05-21T01:57:44.628Z,1.58
2023-05-21T02:00:12.576Z,1.15
2023-05-21T02:02:39.278Z,1.05
2023-05-21T02:05:06.497Z,1.55
2023-05-21T02:07:33.740Z,1.20
2023-05-21T02:10:00.630Z,1.45
2023-05-21T02:12:28.283Z,1.30
2023-05-21T02:14:56.366Z,1.60
2023-05-21T02:17:24.294Z,1.25
2023-05-21T02:19:50.916Z,1.48
2023-05-21T02:22:17.605Z,1.40
2023-05-21T02:24:44.429Z,1.70
2023-05-21T02:27:13.576Z,1.50
2023-05-21T02:29:40.431Z,1.30
2023-05-21T02:32:07.425Z,1.20
2023-05-21T02:34:36.493Z,1.27
2023-05-21T02:37:03.182Z,1.73
2023-05-21T02:39:29.807Z,1.60
2023-05-21T02:41:56.436Z,1.58
2023-05-21T02:44:24.066Z,2.25
2023-05-21T02:46:50.760Z,1.52
2023-05-21T02:49:17.408Z,1.92
2023-05-21T02:51:43.995Z,1.65
2023-05-21T02:54:10.662Z,1.48
2023-05-21T02:56:37.255Z,1.65
2023-05-21T02:59:04.047Z,1.70
2023-05-21T03:01:30.806Z,1.90
2023-05-21T03:03:57.480Z,1.83
2023-05-21T03:06:24.129Z,2.35
2023-05-21T03:08:51.391Z,1.60
2023-05-21T03:11:19.972Z,2.00
2023-05-21T03:13:46.592Z,1.55
2023-05-21T03:16:14.050Z,2.50
2023-05-21T03:18:40.936Z,1.60
2023-05-21T03:21:07.661Z,2.17
2023-05-21T03:23:35.071Z,1.90
2023-05-21T03:26:02.305Z,1.90
2023-05-21T03:28:28.871Z,2.05
2023-05-21T03:30:55.559Z,2.15
2023-05-21T03:33:23.091Z,2.08
2023-05-21T03:35:49.741Z,1.75
2023-05-21T03:38:16.472Z,1.77
2023-05-21T03:40:43.182Z,2.17
2023-05-21T03:43:09.888Z,2.65
2023-05-21T03:45:36.788Z,2.05
2023-05-21T03:48:04.095Z,2.42
2023-05-21T03:50:31.009Z,2.35
2023-05-21T03:52:58.063Z,2.55
2023-05-21T03:55:24.918Z,2.20
2023-05-21T03:57:51.506Z,2.47
2023-05-21T04:00:18.259Z,2.83
2023-05-21T04:02:44.984Z,2.47
2023-05-21T04:05:11.713Z,2.60
2023-05-21T04:07:38.359Z,2.38
2023-05-21T04:10:05.728Z,2.30
2023-05-21T04:12:32.600Z,2.33
2023-05-21T04:14:59.275Z,2.72
2023-05-21T04:17:27.089Z,2.80
2023-05-21T04:19:54.300Z,2.72
2023-05-21T04:22:21.584Z,2.88
2023-05-21T04:24:48.842Z,2.95
2023-05-21T04:27:16.696Z,2.50
2023-05-21T04:29:43.306Z,2.63
2023-05-21T04:32:10.011Z,2.55
2023-05-21T04:34:36.626Z,2.63
2023-05-21T04:37:03.326Z,2.72
2023-05-21T04:39:31.487Z,2.63
2023-05-21T04:41:58.173Z,2.53
2023-05-21T04:44:24.824Z,2.90
2023-05-21T04:46:52.506Z,2.78
2023-05-21T04:49:20.869Z,3.13
2023-05-21T04:51:47.548Z,2.92
2023-05-21T04:54:14.228Z,3.17
2023-05-21T04:56:40.884Z,3.10
2023-05-21T04:59:07.521Z,3.50
2023-05-21T05:01:35.098Z,2.83
2023-05-21T05:04:01.980Z,3.00
2023-05-21T05:06:28.824Z,3.00
2023-05-21T05:08:55.430Z,3.20
2023-05-21T05:11:22.399Z,3.03
2023-05-21T05:13:49.112Z,3.40
2023-05-21T05:16:18.369Z,2.55
2023-05-21T05:18:45.078Z,3.15
2023-05-21T05:21:11.769Z,2.63
2023-05-21T05:23:38.410Z,3.00
2023-05-21T05:26:06.030Z,3.17
2023-05-21T05:28:32.672Z,2.80
2023-05-21T05:30:59.557Z,3.22
2023-05-21T05:33:26.321Z,3.60
2023-05-21T05:35:53.010Z,3.42
2023-05-21T05:38:19.816Z,3.90
2023-05-21T05:40:47.562Z,3.08
2023-05-21T05:43:14.157Z,3.70
2023-05-21T05:45:40.852Z,3.22
2023-05-21T05:48:07.585Z,3.33
2023-05-21T05:50:34.422Z,3.20
2023-05-21T05:53:01.070Z,3.05
2023-05-21T05:55:27.755Z,3.05
2023-05-21T05:57:54.815Z,3.00
2023-05-21T06:00:22.811Z,3.42
2023-05-21T06:02:49.523Z,3.72
2023-05-21T06:05:16.540Z,3.80
2023-05-21T06:07:44.664Z,2.85
2023-05-21T06:10:11.384Z,3.67
2023-05-21T06:12:37.963Z,3.50
2023-05-21T06:15:06.087Z,3.33
2023-05-21T06:17:32.759Z,3.85
2023-05-21T06:19:59.512Z,3.67
2023-05-21T06:22:26.137Z,3.25
2023-05-21T06:24:52.733Z,3.63
2023-05-21T06:27:19.495Z,4.15
2023-05-21T06:29:46.097Z,3.70
2023-05-21T06:32:14.530Z,4.43
2023-05-21T06:34:41.109Z,4.25
2023-05-21T06:37:07.848Z,3.97
2023-05-21T06:39:34.525Z,4.15
2023-05-21T06:42:01.723Z,4.15
2023-05-21T06:44:29.749Z,3.72
2023-05-21T06:46:58.339Z,4.28
2023-05-21T06:49:24.969Z,4.80
2023-05-21T06:51:51.600Z,4.00
2023-05-21T06:54:18.244Z,4.38
2023-05-21T06:56:44.921Z,4.43
2023-05-21T06:59:12.061Z,4.18
2023-05-21T07:01:42.285Z,3.90
2023-05-21T07:04:09.412Z,4.18
2023-05-21T07:06:36.311Z,4.70
2023-05-21T07:09:04.770Z,4.25
2023-05-21T07:11:31.815Z,4.57
2023-05-21T07:14:01.505Z,4.60
2023-05-21T07:16:28.105Z,4.40
2023-05-21T07:18:55.126Z,5.00
2023-05-21T07:21:21.993Z,4.80
2023-05-21T07:23:49.104Z,5.07
2023-05-21T07:26:15.980Z,5.20
2023-05-21T07:28:42.835Z,5.10
2023-05-21T07:31:12.056Z,5.28
2023-05-21T07:33:38.772Z,4.70
2023-05-21T07:36:06.049Z,5.10
2023-05-21T07:38:32.751Z,5.43
2023-05-21T07:40:59.524Z,4.80
2023-05-21T07:43:28.515Z,5.18
2023-05-21T07:45:55.599Z,4.93
2023-05-21T07:48:22.306Z,5.47
2023-05-21T07:50:50.030Z,5.22
2023-05-21T07:53:16.725Z,5.55
2023-05-21T07:55:47.609Z,5.88
2023-05-21T07:58:18.670Z,5.32
2023-05-21T08:00:48.021Z,6.97
2023-05-21T08:03:19.160Z,5.93
2023-05-21T08:05:49.031Z,5.60
2023-05-21T08:08:19.956Z,5.20
2023-05-21T08:10:47.702Z,5.10
2023-05-21T08:13:15.790Z,5.13
2023-05-21T08:15:43.244Z,5.70
2023-05-21T08:18:10.158Z,5.75
2023-05-21T08:20:37.137Z,5.90
2023-05-21T08:23:04.823Z,5.93
2023-05-21T08:25:31.876Z,6.43
2023-05-21T08:27:58.545Z,5.95
2023-05-21T08:30:26.807Z,5.70
2023-05-21T08:32:54.867Z,6.35
2023-05-21T08:35:21.499Z,5.32
2023-05-21T08:37:48.107Z,6.28
2023-05-21T08:40:15.048Z,6.40
2023-05-21T08:42:49.525Z,6.35
2023-05-21T08:45:23.524Z,5.30
2023-05-21T08:47:57.621Z,6.22
2023-05-21T08:50:27.216Z,6.25
2023-05-21T08:52:55.301Z,5.75
2023-05-21T08:55:23.601Z,6.07
2023-05-21T08:57:50.870Z,5.80
2023-05-21T09:00:17.796Z,5.63
2023-05-21T09:02:46.234Z,5.93
2023-05-21T09:05:15.655Z,6.07
2023-05-21T09:08:01.103Z,6.07
2023-05-21T09:10:40.138Z,6.00
2023-05-21T09:13:08.066Z,5.97
2023-05-21T09:15:34.968Z,7.10
2023-05-21T09:18:01.750Z,7.15
2023-05-21T09:20:28.933Z,6.65
2023-05-21T09:22:55.670Z,6.93
2023-05-21T09:25:25.297Z,6.35
2023-05-21T09:27:54.242Z,7.07
2023-05-21T09:30:34.881Z,6.50
2023-05-21T09:33:05.090Z,6.63
2023-05-21T09:35:33.963Z,6.70
2023-05-21T09:38:01.769Z,6.57
2023-05-21T09:40:29.904Z,6.90
2023-05-21T09:42:56.695Z,6.68
2023-05-21T09:45:27.720Z,6.65
2023-05-21T09:47:56.021Z,6.13
2023-05-21T09:50:25.863Z,6.57
2023-05-21T09:52:55.555Z,6.78
2023-05-21T09:55:23.406Z,6.85
2023-05-21T09:57:51.332Z,7.22
2023-05-21T10:00:21.654Z,7.35
2023-05-21T10:02:49.798Z,7.28
2023-05-21T10:05:17.532Z,7.53
2023-05-21T10:07:51.331Z,6.97
2023-05-21T10:10:21.426Z,7.40
2023-05-21T10:13:00.576Z,7.35
2023-05-21T10:15:31.771Z,6.63
2023-05-21T10:18:01.174Z,7.30
2023-05-21T10:20:27.866Z,7.10
2023-05-21T10:22:55.522Z,7.00
2023-05-21T10:25:23.127Z,6.80
2023-05-21T10:27:49.787Z,8.13
2023-05-21T10:30:18.592Z,7.60
2023-05-21T10:32:48.565Z,6.90
2023-05-21T10:35:18.434Z,7.22
2023-05-21T10:37:45.682Z,8.00
2023-05-21T10:40:13.173Z,5.97
2023-05-21T10:42:58.602Z,7.93
2023-05-21T10:45:47.824Z,7.70
2023-05-21T10:48:42.715Z,8.13
2023-05-21T10:51:20.066Z,7.82
2023-05-21T10:54:13.926Z,7.60
2023-05-21T10:56:54.917Z,7.97
2023-05-21T10:59:37.670Z,8.43
2023-05-21T11:02:05.697Z,6.93
2023-05-21T11:04:32.534Z,7.55
2023-05-21T11:06:59.441Z,7.68
2023-05-21T11:09:26.572Z,7.30
2023-05-21T11:12:03.934Z,7.43
2023-05-21T11:14:40.489Z,7.10
2023-05-21T11:17:14.799Z,7.13
2023-05-21T11:19:52.454Z,6.85
2023-05-21T11:22:26.958Z,7.00
2023-05-21T11:24:55.559Z,7.05
2023-05-21T11:27:41.390Z,7.00
2023-05-21T11:30:20.616Z,6.93
2023-05-21T11:33:12.171Z,6.38
2023-05-21T11:35:44.812Z,7.18
2023-05-21T11:38:11.653Z,7.47
2023-05-21T11:40:49.844Z,7.35
2023-05-21T11:43:18.227Z,6.70
2023-05-21T11:45:47.124Z,6.80
2023-05-21T11:48:14.342Z,7.05
2023-05-21T11:50:42.723Z,7.82
2023-05-21T11:53:12.075Z,7.60
2023-05-21T11:55:43.403Z,7.30
2023-05-21T11:58:13.569Z,6.35
2023-05-21T12:00:40.803Z,6.65
2023-05-21T12:03:08.328Z,7.00
2023-05-21T12:05:45.407Z,7.45
2023-05-21T12:08:12.036Z,6.35
2023-05-21T12:10:39.688Z,7.60
2023-05-21T12:13:06.678Z,6.90
2023-05-21T12:15:33.332Z,7.50
2023-05-21T12:18:01.065Z,6.95
2023-05-21T12:20:28.598Z,6.60
2023-05-21T12:22:57.096Z,7.00
2023-05-21T12:25:23.797Z,7.32
2023-05-21T12:27:58.119Z,6.82
2023-05-21T12:30:26.236Z,7.80
2023-05-21T12:32:54.605Z,6.90
2023-05-21T12:35:23.196Z,7.07
2023-05-21T12:37:54.699Z,7.15
2023-05-21T12:40:22.134Z,7.43
2023-05-21T12:42:49.828Z,6.72
2023-05-21T12:45:18.554Z,7.05
2023-05-21T12:47:49.908Z,7.05
2023-05-21T12:50:21.179Z,7.50
2023-05-21T12:52:47.947Z,6.88
2023-05-21T12:55:15.058Z,7.30
2023-05-21T12:57:43.756Z,7.60
2023-05-21T13:00:11.155Z,6.43
2023-05-21T13:02:42.375Z,7.03
2023-05-21T13:05:11.396Z,6.90
2023-05-21T13:07:39.427Z,7.57
2023-05-21T13:10:06.727Z,6.97
2023-05-21T13:12:34.244Z,6.72
2023-05-21T13:15:03.250Z,7.90
2023-05-21T13:17:30.581Z,7.05
2023-05-21T13:20:11.285Z,7.50
2023-05-21T13:22:46.805Z,7.40
2023-05-21T13:25:20.203Z,7.53
2023-05-21T13:27:48.692Z,7.70
2023-05-21T13:30:15.582Z,6.78
2023-05-21T13:32:43.415Z,7.00
2023-05-21T13:35:12.061Z,7.30
2023-05-21T13:37:40.192Z,7.43
2023-05-21T13:40:08.630Z,7.18
2023-05-21T13:42:35.809Z,7.00
2023-05-21T13:45:04.254Z,7.07
2023-05-21T13:47:32.054Z,7.25
2023-05-21T13:49:58.680Z,7.28
2023-05-21T13:52:25.310Z,7.00
2023-05-21T13:54:52.084Z,6.47
2023-05-21T13:57:18.813Z,6.63
2023-05-21T13:59:45.543Z,6.20
2023-05-21T14:02:12.181Z,6.60
2023-05-21T14:04:39.964Z,6.95
2023-05-21T14:07:07.132Z,6.97
2023-05-21T14:09:35.562Z,6.43
2023-05-21T14:12:03.147Z,6.75
2023-05-21T14:14:31.348Z,6.25
2023-05-21T14:16:58.026Z,6.40
2023-05-21T14:19:24.811Z,6.18
2023-05-21T14:21:54.669Z,6.30
2023-05-21T14:24:21.324Z,6.10
2023-05-21T14:26:50.207Z,6.50
2023-05-21T14:29:16.837Z,6.53
2023-05-21T14:31:43.510Z,6.55
2023-05-21T14:34:10.188Z,7.25
2023-05-21T14:36:38.865Z,6.25
2023-05-21T14:39:05.679Z,6.20
2023-05-21T14:41:32.385Z,6.57
2023-05-21T14:44:00.331Z,6.22
2023-05-21T14:46:28.780Z,6.13
2023-05-21T14:48:59.018Z,6.55
2023-05-21T14:51:25.795Z,6.15
2023-05-21T14:53:52.425Z,6.07
2023-05-21T14:56:21.571Z,6.25
2023-05-21T14:58:48.272Z,6.40
2023-05-21T15:01:14.981Z,6.53
2023-05-21T15:03:41.909Z,5.80
2023-05-21T15:06:08.741Z,6.15
2023-05-21T15:08:36.113Z,6.50
2023-05-21T15:11:04.886Z,6.70
2023-05-21T15:13:31.842Z,6.05
2023-05-21T15:15:58.513Z,5.88
2023-05-21T15:18:25.320Z,6.47
2023-05-21T15:20:52.798Z,6.22
2023-05-21T15:23:19.433Z,6.40
2023-05-21T15:25:46.116Z,6.13
2023-05-21T15:28:13.106Z,7.00
2023-05-21T15:30:40.448Z,5.82
2023-05-21T15:33:07.091Z,5.88
2023-05-21T15:35:35.454Z,6.07
2023-05-21T15:38:04.247Z,6.40
2023-05-21T15:40:32.123Z,5.60
2023-05-21T15:42:58.898Z,5.78
2023-05-21T15:45:25.641Z,6.60
2023-05-21T15:47:52.378Z,6.35
2023-05-21T15:50:20.882Z,6.40
2023-05-21T15:52:50.252Z,5.85
2023-05-21T15:55:18.292Z,5.80
2023-05-21T15:57:44.987Z,5.60
2023-05-21T16:00:14.327Z,5.60
2023-05-21T16:02:41.839Z,5.80
2023-05-21T16:05:08.981Z,6.10
2023-05-21T16:07:37.789Z,5.72
2023-05-21T16:10:07.143Z,5.72
2023-05-21T16:12:33.858Z,6.10
2023-05-21T16:15:00.776Z,5.63
2023-05-21T16:17:28.996Z,5.75
2023-05-21T16:19:55.701Z,6.28
2023-05-21T16:22:23.678Z,5.88
2023-05-21T16:24:52.156Z,6.65
2023-05-21T16:27:18.719Z,5.88
2023-05-21T16:29:45.709Z,5.85
2023-05-21T16:32:13.834Z,6.45
2023-05-21T16:34:41.015Z,6.53
2023-05-21T16:37:10.963Z,5.72
2023-05-21T16:39:37.605Z,6.35
2023-05-21T16:42:04.704Z,6.20
2023-05-21T16:44:32.118Z,6.30
2023-05-21T16:46:59.607Z,6.07
2023-05-21T16:49:28.904Z,5.95
2023-05-21T16:51:55.575Z,5.53
2023-05-21T16:54:22.248Z,5.53
2023-05-21T16:56:48.920Z,6.00
2023-05-21T16:59:15.769Z,6.30
2023-05-21T17:01:42.736Z,6.00
2023-05-21T17:04:11.460Z,5.75
2023-05-21T17:06:38.110Z,6.00
2023-05-21T17:09:06.660Z,5.07
2023-05-21T17:11:35.807Z,5.53
2023-05-21T17:14:03.951Z,5.85
2023-05-21T17:16:32.142Z,6.45
2023-05-21T17:18:58.840Z,5.50
2023-05-21T17:21:26.643Z,5.78
2023-05-21T17:23:54.698Z,5.80
2023-05-21T17:26:22.290Z,5.68
2023-05-21T17:28:48.929Z,5.75
2023-05-21T17:31:18.114Z,6.15
2023-05-21T17:33:44.901Z,5.80
2023-05-21T17:36:12.568Z,5.50
2023-05-21T17:38:39.182Z,6.07
2023-05-21T17:41:05.874Z,5.70
2023-05-21T17:43:34.502Z,5.78
2023-05-21T17:46:01.181Z,6.82
2023-05-21T17:48:27.783Z,6.03
2023-05-21T17:50:54.540Z,5.53
2023-05-21T17:53:21.283Z,5.90
2023-05-21T17:55:47.887Z,5.60
2023-05-21T17:58:14.482Z,6.07
2023-05-21T18:00:41.150Z,5.80
2023-05-21T18:03:07.936Z,5.78
2023-05-21T18:05:34.848Z,5.93
2023-05-21T18:08:02.662Z,5.78
2023-05-21T18:10:30.252Z,5.97
2023-05-21T18:12:56.959Z,6.20
2023-05-21T18:15:23.691Z,5.68
2023-05-21T18:17:51.923Z,6.00
2023-05-21T18:20:20.428Z,5.72
2023-05-21T18:22:47.108Z,6.20
2023-05-21T18:25:15.820Z,7.03
2023-05-21T18:27:42.434Z,6.22
2023-05-21T18:30:11.430Z,6.30
2023-05-21T18:32:40.976Z,6.75
2023-05-21T18:35:10.602Z,6.70
2023-05-21T18:37:38.588Z,7.30
2023-05-21T18:40:06.012Z,6.97
2023-05-21T18:42:32.625Z,7.43
2023-05-21T18:45:07.372Z,7.32
2023-05-21T18:47:34.390Z,7.30
2023-05-21T18:50:01.189Z,7.53
2023-05-21T18:52:27.832Z,7.15
2023-05-21T18:54:54.720Z,6.93
2023-05-21T18:57:21.343Z,7.50
2023-05-21T18:59:47.955Z,8.07
2023-05-21T19:02:14.711Z,7.38
2023-05-21T19:04:41.334Z,6.90
2023-05-21T19:07:08.041Z,7.05
2023-05-21T19:09:35.939Z,7.25
2023-05-21T19:12:02.620Z,7.35
2023-05-21T19:14:30.227Z,7.18
2023-05-21T19:16:56.944Z,7.57
2023-05-21T19:19:23.617Z,7.70
2023-05-21T19:21:52.074Z,7.32
2023-05-21T19:24:18.938Z,7.20
2023-05-21T19:26:47.363Z,6.97
2023-05-21T19:29:13.998Z,7.32
2023-05-21T19:31:41.145Z,7.50
2023-05-21T19:34:12.677Z,7.65
2023-05-21T19:36:52.324Z,7.13
2023-05-21T19:39:20.860Z,7.88
2023-05-21T19:41:49.119Z,7.38
2023-05-21T19:44:15.783Z,7.75
2023-05-21T19:46:42.472Z,7.90
2023-05-21T19:49:12.335Z,7.78
2023-05-21T19:51:38.921Z,7.95
2023-05-21T19:54:05.682Z,7.53
2023-05-21T19:56:32.251Z,7.63
2023-05-21T19:58:58.865Z,7.60
2023-05-21T20:01:25.662Z,7.57
2023-05-21T20:03:53.878Z,8.27
2023-05-21T20:06:20.719Z,7.55
2023-05-21T20:08:47.710Z,8.00
2023-05-21T20:11:14.580Z,7.63
2023-05-21T20:13:41.977Z,8.43
2023-05-21T20:16:10.271Z,7.78
2023-05-21T20:18:37.037Z,7.03
2023-05-21T20:21:06.321Z,7.60
2023-05-21T20:23:33.045Z,7.57
2023-05-21T20:25:59.710Z,7.57
2023-05-21T20:28:26.361Z,7.50
2023-05-21T20:30:57.099Z,7.57
2023-05-21T20:33:25.363Z,7.65
2023-05-21T20:35:51.986Z,8.07
2023-05-21T20:38:18.632Z,7.95
2023-05-21T20:40:45.424Z,7.72
2023-05-21T20:43:12.126Z,8.35
2023-05-21T20:45:39.414Z,8.05
2023-05-21T20:48:06.769Z,8.18
2023-05-21T20:50:34.753Z,8.05
2023-05-21T20:53:01.858Z,7.55
2023-05-21T20:55:28.522Z,8.25
2023-05-21T20:57:56.002Z,7.53
2023-05-21T21:00:22.656Z,7.95
2023-05-21T21:02:49.717Z,7.45
2023-05-21T21:05:16.360Z,7.55
2023-05-21T21:07:43.102Z,8.23
2023-05-21T21:10:09.987Z,8.07
2023-05-21T21:12:36.590Z,7.38
2023-05-21T21:15:03.622Z,7.50
2023-05-21T21:17:32.190Z,7.72
2023-05-21T21:19:58.867Z,7.70
2023-05-21T21:22:26.280Z,8.95
2023-05-21T21:24:52.912Z,8.20
2023-05-21T21:27:19.554Z,7.05
2023-05-21T21:29:46.433Z,7.68
2023-05-21T21:32:13.146Z,7.93
2023-05-21T21:34:39.764Z,8.60
2023-05-21T21:37:06.451Z,8.25
2023-05-21T21:39:33.164Z,8.45
2023-05-21T21:41:59.978Z,8.25
2023-05-21T21:44:26.578Z,8.27
2023-05-21T21:46:53.175Z,7.85
2023-05-21T21:49:19.837Z,7.22
2023-05-21T21:51:46.495Z,7.68
2023-05-21T21:54:13.134Z,7.88
2023-05-21T21:56:39.865Z,7.30
2023-05-21T21:59:06.498Z,8.38
2023-05-21T22:01:33.387Z,7.70
2023-05-21T22:04:00.148Z,7.57
2023-05-21T22:06:27.696Z,7.68
2023-05-21T22:08:54.688Z,8.10
2023-05-21T22:11:21.874Z,8.05
2023-05-21T22:13:48.751Z,7.10
2023-05-21T22:16:15.428Z,7.88
2023-05-21T22:18:42.200Z,7.18
2023-05-21T22:21:10.586Z,8.10
2023-05-21T22:23:38.691Z,7.30
2023-05-21T22:26:05.892Z,7.40
2023-05-21T22:28:32.907Z,7.78
2023-05-21T22:30:59.641Z,7.70
2023-05-21T22:33:26.835Z,7.75
2023-05-21T22:35:54.322Z,7.72
2023-05-21T22:38:21.392Z,7.13
2023-05-21T22:40:48.227Z,7.82
2023-05-21T22:43:14.953Z,7.82
2023-05-21T22:45:41.639Z,8.30
2023-05-21T22:48:09.229Z,7.82
2023-05-21T22:50:36.145Z,7.70
2023-05-21T22:53:03.014Z,7.55
2023-05-21T22:55:29.699Z,7.70
2023-05-21T22:57:56.465Z,7.97
2023-05-21T23:00:23.527Z,7.22
2023-05-21T23:02:53.107Z,7.35
2023-05-21T23:05:20.903Z,7.30
2023-05-21T23:07:47.593Z,7.78
2023-05-21T23:10:14.387Z,7.55
2023-05-21T23:12:41.246Z,7.32
2023-05-21T23:15:09.741Z,7.80
2023-05-21T23:17:37.258Z,8.18
2023-05-21T23:20:05.577Z,8.10
2023-05-21T23:22:32.627Z,7.03
2023-05-21T23:24:59.465Z,7.85
2023-05-21T23:27:26.158Z,7.38
2023-05-21T23:29:52.986Z,7.78
2023-05-21T23:32:19.855Z,7.55
2023-05-21T23:34:47.027Z,7.45
2023-05-21T23:37:13.653Z,7.55
2023-05-21T23:39:40.380Z,6.90
2023-05-21T23:42:07.318Z,7.35
2023-05-21T23:44:33.955Z,6.97
2023-05-21T23:47:00.556Z,7.22
2023-05-21T23:49:27.167Z,7.22
2023-05-21T23:51:53.964Z,7.05
2023-05-21T23:54:20.612Z,7.70
2023-05-21T23:56:47.389Z,6.70
2023-05-21T23:59:15.650Z,6.57
